createdAt,value
2023-07-03T06:12:08.788Z,11.10
2023-07-03T06:14:36.105Z,12.05
2023-07-03T06:17:03.248Z,11.13
2023-07-03T06:19:31.241Z,11.48
2023-07-03T06:21:58.801Z,13.80
2023-07-03T06:24:25.809Z,11.85
2023-07-03T06:26:53.417Z,11.48
2023-07-03T06:29:20.563Z,10.73
2023-07-03T06:31:48.566Z,10.45
2023-07-03T06:34:15.468Z,10.63
2023-07-03T06:36:42.471Z,11.10
2023-07-03T06:39:10.596Z,10.40
2023-07-03T06:41:37.472Z,10.68
2023-07-03T06:44:06.152Z,10.15
2023-07-03T06:46:34.502Z,11.27
2023-07-03T06:49:01.547Z,10.55
2023-07-03T06:51:28.645Z,11.10
2023-07-03T06:53:55.831Z,10.25
2023-07-03T06:56:23.210Z,10.10
2023-07-03T06:58:51.290Z,9.90
2023-07-03T07:01:21.621Z,9.43
2023-07-03T07:03:48.822Z,10.80
2023-07-03T07:06:23.751Z,10.35
2023-07-03T07:08:51.185Z,11.48
2023-07-03T07:11:27.809Z,10.93
2023-07-03T07:13:57.505Z,11.18
2023-07-03T07:16:32.286Z,10.77
2023-07-03T07:19:03.544Z,11.85
2023-07-03T07:21:32.656Z,12.10
2023-07-03T07:24:02.352Z,12.48
2023-07-03T07:26:35.131Z,14.13
2023-07-03T07:29:02.571Z,13.90
2023-07-03T07:31:29.929Z,14.45
2023-07-03T07:33:57.406Z,14.35
2023-07-03T07:36:26.466Z,14.32
2023-07-03T07:38:57.101Z,14.65
2023-07-03T07:41:26.457Z,15.85
2023-07-03T07:43:54.828Z,15.85
2023-07-03T07:46:26.473Z,16.27
2023-07-03T07:48:53.987Z,16.55
2023-07-03T07:51:20.957Z,17.30
2023-07-03T07:53:47.864Z,16.08
2023-07-03T07:56:15.138Z,16.48
2023-07-03T07:58:42.001Z,15.50
2023-07-03T08:01:12.883Z,17.52
2023-07-03T08:03:41.397Z,17.70
2023-07-03T08:06:09.326Z,16.08
2023-07-03T08:08:36.655Z,17.52
2023-07-03T08:11:05.430Z,16.50
2023-07-03T08:13:34.545Z,15.98
2023-07-03T08:16:01.692Z,18.10
2023-07-03T08:18:29.214Z,16.90
2023-07-03T08:20:56.077Z,15.65
2023-07-03T08:23:23.121Z,17.08
2023-07-03T08:25:55.142Z,19.58
2023-07-03T08:28:23.134Z,17.27
2023-07-03T08:30:50.846Z,18.00
2023-07-03T08:33:18.155Z,16.65
2023-07-03T08:38:15.064Z,51.83
2023-07-03T08:40:43.251Z,19.83
2023-07-03T08:43:16.569Z,18.17
2023-07-03T08:45:48.311Z,26.27
2023-07-03T08:48:21.863Z,23.35
2023-07-03T08:50:55.581Z,18.65
2023-07-03T08:53:29.093Z,69.35
2023-07-03T08:56:12.886Z,18.23
2023-07-03T08:58:39.760Z,21.95
2023-07-03T09:01:26.361Z,19.35
2023-07-03T09:04:25.502Z,18.33
2023-07-03T09:06:59.723Z,22.17
2023-07-03T09:09:39.108Z,18.45
2023-07-03T09:12:13.388Z,16.92
2023-07-03T09:14:48.964Z,18.02
2023-07-03T09:17:16.087Z,18.92
2023-07-03T09:19:48.319Z,18.35
2023-07-03T09:23:16.948Z,14.80
2023-07-03T09:26:02.297Z,14.23
2023-07-03T09:28:35.359Z,14.07
2023-07-03T09:31:04.377Z,14.65
2023-07-03T09:33:32.222Z,14.15
2023-07-03T09:36:19.976Z,14.27
2023-07-03T09:38:47.046Z,13.50
2023-07-03T09:41:14.418Z,12.82
2023-07-03T09:43:45.042Z,13.30
2023-07-03T09:46:15.052Z,12.70
2023-07-03T09:48:42.273Z,12.20
2023-07-03T09:51:30.559Z,11.48
2023-07-03T09:54:00.394Z,10.65
2023-07-03T09:56:31.118Z,10.73
2023-07-03T09:59:06.088Z,11.18
2023-07-03T10:07:00.524Z,9.93
2023-07-03T10:12:16.242Z,10.10
2023-07-03T10:15:19.356Z,11.25
2023-07-03T10:18:12.872Z,10.40
2023-07-03T10:20:45.774Z,9.43
2023-07-03T10:23:36.128Z,11.05
2023-07-03T10:26:25.708Z,10.88
2023-07-03T10:28:57.192Z,10.00
2023-07-03T10:31:51.776Z,9.00
2023-07-03T10:34:38.457Z,7.85
2023-07-03T10:37:07.392Z,8.15
2023-07-03T10:40:01.396Z,9.07
2023-07-03T10:42:39.633Z,8.68
2023-07-03T10:45:10.824Z,6.68
2023-07-03T10:48:01.502Z,7.03
2023-07-03T10:50:41.728Z,7.90
2023-07-03T10:53:23.573Z,8.55
2023-07-03T10:56:10.721Z,6.25
2023-07-03T10:59:00.458Z,6.05
2023-07-03T11:01:37.891Z,6.00
2023-07-03T11:04:42.396Z,5.60
2023-07-03T11:07:27.913Z,4.40
2023-07-03T11:10:10.293Z,4.60
2023-07-03T11:12:37.109Z,4.13
2023-07-03T11:15:14.803Z,3.50
2023-07-03T11:23:52.854Z,3.35
2023-07-03T11:29:11.830Z,3.50
2023-07-03T11:31:42.576Z,3.53
2023-07-03T11:36:51.323Z,3.80
2023-07-03T11:44:40.496Z,3.85
2023-07-03T11:47:19.716Z,4.07
2023-07-03T11:50:01.297Z,3.85
2023-07-03T11:52:29.640Z,4.15
2023-07-03T11:55:11.402Z,3.95
2023-07-03T11:57:41.666Z,3.90
2023-07-03T12:00:25.604Z,4.70
2023-07-03T12:02:54.398Z,4.57
2023-07-03T12:05:42.975Z,4.07
2023-07-03T12:08:33.991Z,4.53
2023-07-03T12:13:29.856Z,4.20
2023-07-03T12:16:03.652Z,4.55
2023-07-03T12:18:31.816Z,4.68
2023-07-03T12:21:06.472Z,4.70
2023-07-03T12:23:38.381Z,7.63
2023-07-03T12:26:14.132Z,4.85
2023-07-03T12:28:42.378Z,5.03
2023-07-03T12:31:10.591Z,4.88
2023-07-03T12:33:37.486Z,5.38
2023-07-03T12:36:04.420Z,4.80
2023-07-03T12:38:31.284Z,5.25
2023-07-03T12:40:58.076Z,5.20
2023-07-03T12:43:25.156Z,5.00
2023-07-03T12:45:54.042Z,5.82
2023-07-03T12:48:22.757Z,5.18
2023-07-03T12:50:54.761Z,5.97
2023-07-03T12:53:23.236Z,5.85
2023-07-03T12:55:56.884Z,5.60
2023-07-03T12:58:25.159Z,5.93
2023-07-03T13:01:04.949Z,5.40
2023-07-03T13:03:31.875Z,4.90
2023-07-03T13:05:59.196Z,5.80
2023-07-03T13:08:26.410Z,5.95
2023-07-03T13:11:04.513Z,5.72
2023-07-03T13:13:31.356Z,5.65
2023-07-03T13:15:58.190Z,5.43
2023-07-03T13:18:25.186Z,5.60
2023-07-03T13:21:02.877Z,5.85
2023-07-03T13:23:35.058Z,5.28
2023-07-03T13:26:04.908Z,5.90
2023-07-03T13:28:38.879Z,5.90
2023-07-03T13:31:14.857Z,5.75
2023-07-03T13:34:00.872Z,5.90
2023-07-03T13:36:34.736Z,6.35
2023-07-03T13:39:05.011Z,5.60
2023-07-03T13:41:32.360Z,5.70
2023-07-03T13:43:59.772Z,6.07
2023-07-03T13:46:28.015Z,6.05
2023-07-03T13:48:55.690Z,6.32
2023-07-03T13:51:22.758Z,5.85
2023-07-03T13:53:56.163Z,5.90
2023-07-03T13:56:27.973Z,5.75
2023-07-03T13:58:54.822Z,5.47
2023-07-03T14:01:26.810Z,6.13
2023-07-03T14:03:54.244Z,5.88
2023-07-03T14:06:21.757Z,5.25
2023-07-03T14:08:48.709Z,5.15
2023-07-03T14:11:16.427Z,5.00
2023-07-03T14:13:44.827Z,5.70
2023-07-03T14:16:11.742Z,5.68
2023-07-03T14:18:38.639Z,5.57
2023-07-03T14:21:06.073Z,5.35
2023-07-03T14:23:34.854Z,6.18
2023-07-03T14:26:06.809Z,5.53
2023-07-03T14:28:34.352Z,5.57
2023-07-03T14:31:01.418Z,5.78
2023-07-03T14:33:28.341Z,5.30
2023-07-03T14:35:55.167Z,5.70
2023-07-03T14:38:22.047Z,5.78
2023-07-03T14:40:48.889Z,5.97
2023-07-03T14:43:15.840Z,5.95
2023-07-03T14:45:42.691Z,6.38
2023-07-03T14:48:10.886Z,6.05
2023-07-03T14:50:39.642Z,6.35
2023-07-03T14:53:06.487Z,6.80
2023-07-03T14:55:33.483Z,6.75
2023-07-03T14:58:00.381Z,6.38
2023-07-03T15:00:27.199Z,6.40
2023-07-03T15:02:54.069Z,6.30
2023-07-03T15:05:21.484Z,5.60
2023-07-03T15:07:50.617Z,5.40
2023-07-03T15:10:20.069Z,6.35
2023-07-03T15:12:47.203Z,6.25
2023-07-03T15:15:14.312Z,6.05
2023-07-03T15:17:41.293Z,6.32
2023-07-03T15:20:09.262Z,6.10
2023-07-03T15:22:36.150Z,5.22
2023-07-03T15:25:03.266Z,5.70
2023-07-03T15:27:31.333Z,5.22
2023-07-03T15:29:58.210Z,7.43
2023-07-03T15:32:25.224Z,5.45
2023-07-03T15:34:54.560Z,5.50
2023-07-03T15:37:22.361Z,5.45
2023-07-03T15:39:49.132Z,5.10
2023-07-03T15:42:16.186Z,5.60
2023-07-03T15:44:43.443Z,5.32
2023-07-03T15:47:11.179Z,5.18
2023-07-03T15:49:38.296Z,5.30
2023-07-03T15:52:07.930Z,5.43
2023-07-03T15:54:38.209Z,5.47
2023-07-03T15:57:06.638Z,5.40
2023-07-03T15:59:33.542Z,4.90
2023-07-03T16:02:00.432Z,5.20
2023-07-03T16:04:27.248Z,4.60
2023-07-03T16:06:54.142Z,5.20
2023-07-03T16:09:21.042Z,4.97
2023-07-03T16:11:48.554Z,4.60
2023-07-03T16:14:15.878Z,5.05
2023-07-03T16:16:42.772Z,4.78
2023-07-03T16:19:09.654Z,5.00
2023-07-03T16:21:37.428Z,4.88
2023-07-03T16:24:05.211Z,5.00
2023-07-03T16:26:32.190Z,4.97
2023-07-03T16:28:59.433Z,4.45
2023-07-03T16:31:28.961Z,4.90
2023-07-03T16:33:58.650Z,5.05
2023-07-03T16:36:27.791Z,4.55
2023-07-03T16:39:03.386Z,4.55
2023-07-03T16:41:34.575Z,5.05
2023-07-03T16:44:01.479Z,4.57
2023-07-03T16:46:29.692Z,4.70
2023-07-03T16:48:58.219Z,4.60
2023-07-03T16:51:26.447Z,4.50
2023-07-03T16:53:53.393Z,4.15
2023-07-03T16:56:27.997Z,4.85
2023-07-03T16:58:58.340Z,4.47
2023-07-03T17:01:27.961Z,4.80
2023-07-03T17:03:58.946Z,4.82
2023-07-03T17:06:32.777Z,4.55
2023-07-03T17:09:01.037Z,4.15
2023-07-03T17:11:29.819Z,4.50
2023-07-03T17:14:00.448Z,4.20
2023-07-03T17:16:28.182Z,4.55
2023-07-03T17:18:55.109Z,4.45
2023-07-03T17:21:22.201Z,4.20
2023-07-03T17:23:56.733Z,4.53
2023-07-03T17:26:23.568Z,4.30
2023-07-03T17:28:50.488Z,4.05
2023-07-03T17:31:24.698Z,4.28
2023-07-03T17:33:55.296Z,4.35
2023-07-03T17:36:24.106Z,4.30
2023-07-03T17:38:52.622Z,4.30
2023-07-03T17:41:20.409Z,4.50
2023-07-03T17:43:47.973Z,5.05
2023-07-03T17:46:16.768Z,4.65
2023-07-03T17:48:44.101Z,4.22
2023-07-03T17:51:11.274Z,4.20
2023-07-03T17:53:38.157Z,4.97
2023-07-03T17:56:05.178Z,4.78
2023-07-03T17:58:32.015Z,4.95
2023-07-03T18:01:04.789Z,5.53
2023-07-03T18:03:33.691Z,5.72
2023-07-03T18:06:00.791Z,4.88
2023-07-03T18:08:27.805Z,4.60
2023-07-03T18:10:55.325Z,5.40
2023-07-03T18:13:22.780Z,5.20
2023-07-03T18:15:54.567Z,4.80
2023-07-03T18:18:21.827Z,5.65
2023-07-03T18:20:49.646Z,6.03
2023-07-03T18:23:16.702Z,5.20
2023-07-03T18:25:43.656Z,5.57
2023-07-03T18:28:10.587Z,5.47
2023-07-03T18:30:37.654Z,5.80
2023-07-03T18:33:04.813Z,5.55
2023-07-03T18:35:37.970Z,6.07
2023-07-03T18:38:05.454Z,5.13
2023-07-03T18:40:32.600Z,5.80
2023-07-03T18:42:59.440Z,5.72
2023-07-03T18:45:26.320Z,6.00
2023-07-03T18:47:53.321Z,5.57
2023-07-03T18:50:20.546Z,5.95
2023-07-03T18:52:47.440Z,5.93
2023-07-03T18:55:14.319Z,6.10
2023-07-03T18:57:41.152Z,6.22
2023-07-03T19:00:08.993Z,6.47
2023-07-03T19:02:35.912Z,6.47
2023-07-03T19:05:05.408Z,6.07
2023-07-03T19:07:33.541Z,5.97
2023-07-03T19:10:16.275Z,6.10
2023-07-03T19:12:45.056Z,6.53
2023-07-03T19:15:11.873Z,5.82
2023-07-03T19:17:38.769Z,6.05
2023-07-03T19:20:07.179Z,6.38
2023-07-03T19:22:33.980Z,6.28
2023-07-03T19:25:00.994Z,6.20
2023-07-03T19:27:27.830Z,6.20
2023-07-03T19:29:55.262Z,6.65
2023-07-03T19:32:22.978Z,6.05
2023-07-03T19:34:54.646Z,6.30
2023-07-03T19:37:21.756Z,6.43
2023-07-03T19:39:48.641Z,6.28
2023-07-03T19:42:16.638Z,6.07
2023-07-03T19:44:43.524Z,5.95
2023-07-03T19:47:10.405Z,6.05
2023-07-03T19:49:37.448Z,6.15
2023-07-03T19:52:04.504Z,5.53
2023-07-03T19:54:31.495Z,5.85
2023-07-03T19:56:58.617Z,6.18
2023-07-03T19:59:25.475Z,5.90
2023-07-03T20:01:53.651Z,5.70
2023-07-03T20:04:21.382Z,6.18
2023-07-03T20:06:48.389Z,6.22
2023-07-03T20:09:15.642Z,6.47
2023-07-03T20:11:42.968Z,6.75
2023-07-03T20:14:09.965Z,6.47
2023-07-03T20:16:38.383Z,6.80
2023-07-03T20:19:05.331Z,6.80
2023-07-03T20:21:32.542Z,6.00
2023-07-03T20:23:59.470Z,6.05
2023-07-03T20:26:29.416Z,7.05
2023-07-03T20:28:56.365Z,7.25
2023-07-03T20:31:23.889Z,6.38
2023-07-03T20:33:50.977Z,7.10
2023-07-03T20:36:19.020Z,6.93
2023-07-03T20:38:45.850Z,6.15
2023-07-03T20:41:14.221Z,7.13
2023-07-03T20:43:43.091Z,6.70
2023-07-03T20:46:15.874Z,6.32
2023-07-03T20:48:43.166Z,6.10
2023-07-03T20:51:14.002Z,6.40
2023-07-03T20:54:02.821Z,6.22
2023-07-03T20:56:31.830Z,6.53
2023-07-03T20:59:00.130Z,5.75
2023-07-03T21:01:32.858Z,6.50
2023-07-03T21:04:02.471Z,6.88
2023-07-03T21:06:31.160Z,6.95
2023-07-03T21:08:59.615Z,6.47
2023-07-03T21:11:29.110Z,6.57
2023-07-03T21:13:59.342Z,6.93
2023-07-03T21:16:27.096Z,6.53
2023-07-03T21:18:54.342Z,6.43
2023-07-03T21:21:31.384Z,6.50
2023-07-03T21:23:59.442Z,6.93
2023-07-03T21:26:26.414Z,6.35
2023-07-03T21:28:54.493Z,6.43
2023-07-03T21:31:24.644Z,5.88
2023-07-03T21:33:51.964Z,6.45
2023-07-03T21:36:21.436Z,7.88
2023-07-03T21:38:50.966Z,7.63
2023-07-03T21:41:18.536Z,9.30
2023-07-03T21:43:56.742Z,6.95
2023-07-03T21:46:25.603Z,8.38
2023-07-03T21:48:54.409Z,8.48
2023-07-03T21:51:21.456Z,9.80
2023-07-03T21:53:49.246Z,11.82
2023-07-03T21:56:20.490Z,10.70
2023-07-03T21:58:48.320Z,11.98
2023-07-03T22:01:27.394Z,10.90
2023-07-03T22:03:55.380Z,11.40
2023-07-03T22:06:23.916Z,14.40
2023-07-03T22:08:51.229Z,3.20
2023-07-03T22:11:19.098Z,5.30
2023-07-03T22:13:46.226Z,6.75
2023-07-03T22:16:17.664Z,10.13
2023-07-03T22:18:45.572Z,9.43
2023-07-03T22:21:13.118Z,8.73
2023-07-03T22:23:40.073Z,12.18
2023-07-03T22:26:07.576Z,6.00
2023-07-03T22:28:34.749Z,3.75
2023-07-03T22:31:01.667Z,2.40
2023-07-03T22:33:29.531Z,2.72
2023-07-03T22:35:56.514Z,4.28
2023-07-03T22:38:23.401Z,5.60
2023-07-03T22:40:51.591Z,3.80
2023-07-03T22:43:20.142Z,2.35
2023-07-03T22:45:47.358Z,1.90
2023-07-03T22:48:14.758Z,2.35
2023-07-03T22:50:42.835Z,2.78
2023-07-03T22:53:10.856Z,2.95
2023-07-03T22:55:42.056Z,3.47
2023-07-03T22:58:10.133Z,2.83
2023-07-03T23:00:40.763Z,3.35
2023-07-03T23:03:08.490Z,2.53
2023-07-03T23:05:42.268Z,2.53
2023-07-03T23:08:09.180Z,2.42
2023-07-03T23:10:36.080Z,2.45
2023-07-03T23:13:02.962Z,3.58
2023-07-03T23:15:29.742Z,3.40
2023-07-03T23:17:57.816Z,3.33
2023-07-03T23:20:25.164Z,2.53
2023-07-03T23:22:52.014Z,3.10
2023-07-03T23:25:18.862Z,3.42
2023-07-03T23:27:46.254Z,3.20
2023-07-03T23:30:13.210Z,2.40
2023-07-03T23:32:40.178Z,1.73
2023-07-03T23:35:07.377Z,2.28
2023-07-03T23:37:34.247Z,2.53
2023-07-03T23:40:01.358Z,2.33
2023-07-03T23:42:28.246Z,3.03
2023-07-03T23:44:55.127Z,2.22
2023-07-03T23:47:21.994Z,2.03
2023-07-03T23:49:50.409Z,2.28
2023-07-03T23:52:17.308Z,1.85
2023-07-03T23:54:44.184Z,2.30
2023-07-03T23:57:12.090Z,1.80
2023-07-03T23:59:39.039Z,1.60
